createdAt,value
2022-11-17T00:00:28.366Z,981.61
2022-11-17T00:01:28.361Z,981.63
2022-11-17T00:02:28.516Z,981.63
2022-11-17T00:03:28.346Z,981.57
2022-11-17T00:04:28.317Z,981.57
2022-11-17T00:05:28.310Z,981.55
2022-11-17T00:06:28.288Z,981.52
2022-11-17T00:07:28.396Z,981.52
2022-11-17T00:08:28.258Z,981.52
2022-11-17T00:09:28.267Z,981.54
2022-11-17T00:10:28.228Z,981.53
2022-11-17T00:11:28.225Z,981.52
2022-11-17T00:12:32.674Z,981.51
2022-11-17T00:13:28.208Z,981.49
2022-11-17T00:14:28.192Z,981.52
2022-11-17T00:15:28.177Z,981.50
2022-11-17T00:16:28.157Z,981.53
2022-11-17T00:17:28.168Z,981.47
2022-11-17T00:18:28.129Z,981.46
2022-11-17T00:19:28.158Z,981.44
2022-11-17T00:20:28.106Z,981.45
2022-11-17T00:21:28.098Z,981.44
2022-11-17T00:22:28.089Z,981.40
2022-11-17T00:23:28.101Z,981.43
2022-11-17T00:24:28.048Z,981.42
2022-11-17T00:25:28.037Z,981.40
2022-11-17T00:26:28.024Z,981.32
2022-11-17T00:27:28.042Z,981.32
2022-11-17T00:28:27.998Z,981.26
2022-11-17T00:29:27.994Z,981.28
2022-11-17T00:30:27.975Z,981.23
2022-11-17T00:31:27.978Z,981.21
2022-11-17T00:32:27.969Z,981.15
2022-11-17T00:33:27.939Z,981.12
2022-11-17T00:34:27.909Z,981.11
2022-11-17T00:35:27.910Z,981.10
2022-11-17T00:36:27.899Z,981.04
2022-11-17T00:37:27.907Z,981.02
2022-11-17T00:38:27.860Z,980.96
2022-11-17T00:39:27.858Z,980.92
2022-11-17T00:40:27.843Z,980.86
2022-11-17T00:41:27.832Z,980.82
2022-11-17T00:42:27.840Z,980.83
2022-11-17T00:43:27.808Z,980.83
2022-11-17T00:44:27.789Z,980.79
2022-11-17T00:45:27.778Z,980.75
2022-11-17T00:46:27.763Z,980.76
2022-11-17T00:47:27.770Z,980.73
2022-11-17T00:48:27.782Z,980.70
2022-11-17T00:49:27.766Z,980.71
2022-11-17T00:50:27.700Z,980.71
2022-11-17T00:51:27.696Z,980.72
2022-11-17T00:52:27.690Z,980.69
2022-11-17T00:53:27.676Z,980.68
2022-11-17T00:54:27.704Z,980.69
2022-11-17T00:55:27.708Z,980.64
2022-11-17T00:56:27.642Z,980.65
2022-11-17T00:57:27.641Z,980.63
2022-11-17T00:58:27.601Z,980.58
2022-11-17T00:59:27.599Z,980.61
2022-11-17T01:00:27.586Z,980.67
2022-11-17T01:01:27.627Z,980.59
2022-11-17T01:02:27.561Z,980.58
2022-11-17T01:03:27.561Z,980.53
2022-11-17T01:04:27.530Z,980.49
2022-11-17T01:05:32.681Z,980.50
2022-11-17T01:06:28.499Z,980.42
2022-11-17T01:07:27.632Z,980.43
2022-11-17T01:08:27.489Z,980.36
2022-11-17T01:09:27.451Z,980.35
2022-11-17T01:10:27.459Z,980.32
2022-11-17T01:11:27.431Z,980.27
2022-11-17T01:12:27.430Z,980.24
2022-11-17T01:13:27.434Z,980.24
2022-11-17T01:14:27.399Z,980.25
2022-11-17T01:15:27.381Z,980.21
2022-11-17T01:16:27.360Z,980.24
2022-11-17T01:17:27.351Z,980.24
2022-11-17T01:18:27.351Z,980.24
2022-11-17T01:19:27.340Z,980.25
2022-11-17T01:20:27.332Z,980.25
2022-11-17T01:21:27.300Z,980.25
2022-11-17T01:22:27.296Z,980.22
2022-11-17T01:23:27.299Z,980.25
2022-11-17T01:24:27.261Z,980.25
2022-11-17T01:25:27.252Z,980.24
2022-11-17T01:26:27.232Z,980.24
2022-11-17T01:27:27.221Z,980.22
2022-11-17T01:28:27.231Z,980.19
2022-11-17T01:29:27.192Z,980.21
2022-11-17T01:30:27.180Z,980.15
2022-11-17T01:31:27.169Z,980.15
2022-11-17T01:32:27.167Z,980.11
2022-11-17T01:33:27.167Z,980.08
2022-11-17T01:34:27.132Z,980.04
2022-11-17T01:35:27.117Z,980.03
2022-11-17T01:36:27.108Z,979.94
2022-11-17T01:37:27.111Z,979.93
2022-11-17T01:38:27.088Z,979.88
2022-11-17T01:39:27.061Z,979.87
2022-11-17T01:40:27.050Z,979.85
2022-11-17T01:41:27.030Z,979.79
2022-11-17T01:42:27.235Z,979.76
2022-11-17T01:43:27.020Z,979.73
2022-11-17T01:44:27.001Z,979.75
2022-11-17T01:45:27.103Z,979.73
2022-11-17T01:46:26.962Z,979.74
2022-11-17T01:47:26.953Z,979.74
2022-11-17T01:48:26.971Z,979.77
2022-11-17T01:49:26.933Z,979.77
2022-11-17T01:50:26.922Z,979.76
2022-11-17T01:51:26.901Z,979.77
2022-11-17T01:52:26.899Z,979.75
2022-11-17T01:53:26.892Z,979.76
2022-11-17T01:54:26.868Z,979.68
2022-11-17T01:55:26.853Z,979.66
2022-11-17T01:56:26.841Z,979.64
2022-11-17T01:57:26.841Z,979.61
2022-11-17T01:58:26.890Z,979.65
2022-11-17T01:59:26.801Z,979.60
2022-11-17T02:00:26.801Z,979.56
2022-11-17T02:01:26.791Z,979.54
2022-11-17T02:02:26.772Z,979.54
2022-11-17T02:03:26.752Z,979.54
2022-11-17T02:04:26.767Z,979.53
2022-11-17T02:05:26.722Z,979.52
2022-11-17T02:06:26.712Z,979.54
2022-11-17T02:07:27.019Z,979.54
2022-11-17T02:08:26.679Z,979.51
2022-11-17T02:10:20.486Z,979.50
2022-11-17T02:11:20.894Z,979.47
2022-11-17T02:12:20.458Z,979.41
2022-11-17T02:13:20.452Z,979.37
2022-11-17T02:14:20.437Z,979.35
2022-11-17T02:15:20.414Z,979.31
2022-11-17T02:16:20.426Z,979.28
2022-11-17T02:17:20.386Z,979.26
2022-11-17T02:18:20.384Z,979.23
2022-11-17T02:19:20.357Z,979.19
2022-11-17T02:20:20.356Z,979.20
2022-11-17T02:21:20.346Z,979.13
2022-11-17T02:22:20.332Z,979.08
2022-11-17T02:23:20.328Z,979.10
2022-11-17T02:24:20.297Z,979.04
2022-11-17T02:25:25.739Z,979.04
2022-11-17T02:26:21.298Z,979.01
2022-11-17T02:27:20.258Z,979.04
2022-11-17T02:28:20.261Z,979.02
2022-11-17T02:29:20.225Z,979.06
2022-11-17T02:30:20.216Z,979.07
2022-11-17T02:31:20.206Z,979.04
2022-11-17T02:32:20.206Z,979.01
2022-11-17T02:33:20.176Z,978.99
2022-11-17T02:34:20.176Z,978.99
2022-11-17T02:35:20.147Z,979.02
2022-11-17T02:36:20.138Z,979.00
2022-11-17T02:37:20.146Z,979.00
2022-11-17T02:38:20.109Z,979.00
2022-11-17T02:39:20.094Z,978.99
2022-11-17T02:40:20.086Z,978.98
2022-11-17T02:41:20.066Z,979.02
2022-11-17T02:42:20.080Z,978.99
2022-11-17T02:43:20.055Z,979.00
2022-11-17T02:44:20.049Z,978.98
2022-11-17T02:45:20.017Z,978.90
2022-11-17T02:46:20.006Z,978.92
2022-11-17T02:47:20.006Z,978.91
2022-11-17T02:48:19.979Z,978.83
2022-11-17T02:49:19.967Z,978.83
2022-11-17T02:50:23.993Z,978.80
2022-11-17T02:51:20.936Z,978.78
2022-11-17T02:52:19.948Z,978.76
2022-11-17T02:53:19.907Z,978.70
2022-11-17T02:54:19.904Z,978.73
2022-11-17T02:55:19.892Z,978.69
2022-11-17T02:56:19.949Z,978.69
2022-11-17T02:57:19.876Z,978.73
2022-11-17T02:58:19.847Z,978.68
2022-11-17T02:59:19.839Z,978.65
2022-11-17T03:00:19.817Z,978.65
2022-11-17T03:01:19.877Z,978.66
2022-11-17T03:02:19.816Z,978.70
2022-11-17T03:03:19.786Z,978.68
2022-11-17T03:04:19.776Z,978.70
2022-11-17T03:05:19.756Z,978.65
2022-11-17T03:06:19.747Z,978.65
2022-11-17T03:07:19.783Z,978.62
2022-11-17T03:08:19.718Z,978.64
2022-11-17T03:09:19.709Z,978.62
2022-11-17T03:10:19.687Z,978.57
2022-11-17T03:11:19.678Z,978.58
2022-11-17T03:12:19.686Z,978.59
2022-11-17T03:13:19.644Z,978.57
2022-11-17T03:14:19.644Z,978.55
2022-11-17T03:15:19.625Z,978.55
2022-11-17T03:16:19.607Z,978.56
2022-11-17T03:17:19.618Z,978.55
2022-11-17T03:18:19.586Z,978.56
2022-11-17T03:19:19.568Z,978.51
2022-11-17T03:20:19.558Z,978.48
2022-11-17T03:21:19.524Z,978.47
2022-11-17T03:22:19.536Z,978.44
2022-11-17T03:23:19.506Z,978.43
2022-11-17T03:24:19.507Z,978.41
2022-11-17T03:25:19.495Z,978.40
2022-11-17T03:26:19.474Z,978.45
2022-11-17T03:27:19.455Z,978.43
2022-11-17T03:28:19.458Z,978.45
2022-11-17T03:29:19.424Z,978.39
2022-11-17T03:30:19.424Z,978.33
2022-11-17T03:31:19.410Z,978.33
2022-11-17T03:32:19.396Z,978.26
2022-11-17T03:33:19.385Z,978.24
2022-11-17T03:34:19.374Z,978.12
2022-11-17T03:35:19.352Z,978.09
2022-11-17T03:36:19.340Z,978.06
2022-11-17T03:37:19.316Z,978.06
2022-11-17T03:38:19.335Z,978.03
2022-11-17T03:39:19.295Z,978.05
2022-11-17T03:40:19.266Z,978.05
2022-11-17T03:41:19.266Z,978.12
2022-11-17T03:42:19.265Z,978.09
2022-11-17T03:43:19.256Z,978.12
2022-11-17T03:44:19.236Z,978.15
2022-11-17T03:45:19.215Z,978.13
2022-11-17T03:46:19.216Z,978.16
2022-11-17T03:47:19.186Z,978.23
2022-11-17T03:48:19.193Z,978.19
2022-11-17T03:49:19.164Z,978.12
2022-11-17T03:50:19.167Z,978.11
2022-11-17T03:51:19.139Z,978.11
2022-11-17T03:52:19.124Z,978.13
2022-11-17T03:53:19.133Z,978.09
2022-11-17T03:54:19.105Z,978.07
2022-11-17T03:55:19.095Z,978.04
2022-11-17T03:56:19.084Z,978.04
2022-11-17T03:57:19.055Z,978.09
2022-11-17T03:58:19.067Z,978.05
2022-11-17T03:59:19.037Z,978.05
2022-11-17T04:00:19.023Z,978.13
2022-11-17T04:01:19.068Z,978.13
2022-11-17T04:02:19.009Z,978.16
2022-11-17T04:03:18.998Z,978.15
2022-11-17T04:04:18.977Z,978.13
2022-11-17T04:05:18.956Z,978.10
2022-11-17T04:06:18.953Z,978.17
2022-11-17T04:07:19.016Z,978.15
2022-11-17T04:08:18.932Z,978.13
2022-11-17T04:09:24.200Z,978.07
2022-11-17T04:10:19.896Z,978.05
2022-11-17T04:11:18.877Z,978.01
2022-11-17T04:12:18.876Z,978.02
2022-11-17T04:13:18.874Z,977.96
2022-11-17T04:14:18.855Z,977.86
2022-11-17T04:15:18.835Z,977.81
2022-11-17T04:16:18.817Z,977.79
2022-11-17T04:17:18.807Z,977.73
2022-11-17T04:18:18.796Z,977.71
2022-11-17T04:19:18.797Z,977.71
2022-11-17T04:20:18.765Z,977.66
2022-11-17T04:21:18.757Z,977.63
2022-11-17T04:22:18.737Z,977.65
2022-11-17T04:23:18.728Z,977.61
2022-11-17T04:24:18.728Z,977.62
2022-11-17T04:25:18.697Z,977.62
2022-11-17T04:26:18.679Z,977.55
2022-11-17T04:27:18.677Z,977.58
2022-11-17T04:28:18.658Z,977.58
2022-11-17T04:29:18.668Z,977.59
2022-11-17T04:30:18.640Z,977.63
2022-11-17T04:31:18.616Z,977.62
2022-11-17T04:32:18.600Z,977.59
2022-11-17T04:33:18.596Z,977.58
2022-11-17T04:34:18.605Z,977.61
2022-11-17T04:35:18.584Z,977.58
2022-11-17T04:36:18.556Z,977.58
2022-11-17T04:37:18.552Z,977.52
2022-11-17T04:38:18.524Z,977.54
2022-11-17T04:39:18.531Z,977.51
2022-11-17T04:40:18.522Z,977.50
2022-11-17T04:41:18.493Z,977.49
2022-11-17T04:42:18.467Z,977.53
2022-11-17T04:43:18.468Z,977.52
2022-11-17T04:44:18.469Z,977.52
2022-11-17T04:45:18.439Z,977.58
2022-11-17T04:46:18.418Z,977.59
2022-11-17T04:47:18.409Z,977.62
2022-11-17T04:48:18.388Z,977.66
2022-11-17T04:49:18.410Z,977.64
2022-11-17T04:50:18.360Z,977.65
2022-11-17T04:51:18.373Z,977.61
2022-11-17T04:52:18.352Z,977.67
2022-11-17T04:53:18.341Z,977.69
2022-11-17T04:54:18.347Z,977.69
2022-11-17T04:55:18.309Z,977.68
2022-11-17T04:56:18.307Z,977.67
2022-11-17T04:57:18.284Z,977.68
2022-11-17T04:58:18.387Z,977.65
2022-11-17T04:59:18.282Z,977.57
2022-11-17T05:00:18.238Z,977.56
2022-11-17T05:01:18.235Z,977.55
2022-11-17T05:02:18.295Z,977.50
2022-11-17T05:03:18.209Z,977.51
2022-11-17T05:04:18.179Z,977.46
2022-11-17T05:05:18.190Z,977.52
2022-11-17T05:06:18.160Z,977.48
2022-11-17T05:07:18.215Z,977.44
2022-11-17T05:08:18.138Z,977.39
2022-11-17T05:09:18.127Z,977.45
2022-11-17T05:10:18.118Z,977.45
2022-11-17T05:11:18.215Z,977.43
2022-11-17T05:12:18.092Z,977.47
2022-11-17T05:13:18.070Z,977.40
2022-11-17T05:14:18.067Z,977.46
2022-11-17T05:15:18.062Z,977.44
2022-11-17T05:16:18.031Z,977.43
2022-11-17T05:17:18.027Z,977.35
2022-11-17T05:18:18.009Z,977.28
2022-11-17T05:19:18.017Z,977.25
2022-11-17T05:20:17.991Z,977.28
2022-11-17T05:21:17.971Z,977.25
2022-11-17T05:22:17.949Z,977.39
2022-11-17T05:23:17.941Z,977.42
2022-11-17T05:24:17.933Z,977.43
2022-11-17T05:25:17.931Z,977.45
2022-11-17T05:26:17.900Z,977.42
2022-11-17T05:27:17.890Z,977.42
2022-11-17T05:28:17.889Z,977.45
2022-11-17T05:29:17.861Z,977.40
2022-11-17T05:30:17.871Z,977.41
2022-11-17T05:31:17.841Z,977.35
2022-11-17T05:32:17.811Z,977.34
2022-11-17T05:33:17.813Z,977.23
2022-11-17T05:34:17.791Z,977.14
2022-11-17T05:35:17.801Z,977.15
2022-11-17T05:36:17.770Z,977.13
2022-11-17T05:37:17.769Z,977.10
2022-11-17T05:38:17.739Z,977.13
2022-11-17T05:39:17.730Z,977.19
2022-11-17T05:40:17.722Z,977.20
2022-11-17T05:41:17.713Z,977.19
2022-11-17T05:42:17.696Z,977.19
2022-11-17T05:43:17.682Z,977.21
2022-11-17T05:44:17.668Z,977.24
2022-11-17T05:45:17.701Z,977.21
2022-11-17T05:46:17.642Z,977.19
2022-11-17T05:47:18.298Z,977.18
2022-11-17T05:48:17.622Z,977.19
2022-11-17T05:49:17.602Z,977.19
2022-11-17T05:50:17.611Z,977.20
2022-11-17T05:51:17.570Z,977.20
2022-11-17T05:52:17.561Z,977.25
2022-11-17T05:53:23.280Z,977.26
2022-11-17T05:54:18.342Z,977.29
2022-11-17T05:55:18.782Z,977.28
2022-11-17T05:56:20.687Z,977.27
2022-11-17T05:57:17.491Z,977.27
2022-11-17T05:58:17.481Z,977.26
2022-11-17T05:59:17.476Z,977.27
2022-11-17T06:00:17.450Z,977.30
2022-11-17T06:01:17.512Z,977.27
2022-11-17T06:02:17.433Z,977.27
2022-11-17T06:03:17.422Z,977.20
2022-11-17T06:04:17.448Z,977.23
2022-11-17T06:05:20.434Z,977.21
2022-11-17T06:06:17.403Z,977.21
2022-11-17T06:07:17.559Z,977.19
2022-11-17T06:08:17.363Z,977.18
2022-11-17T06:09:17.342Z,977.18
2022-11-17T06:10:17.312Z,977.16
2022-11-17T06:11:17.330Z,977.20
2022-11-17T06:12:17.302Z,977.23
2022-11-17T06:13:17.294Z,977.24
2022-11-17T06:14:17.271Z,977.27
2022-11-17T06:15:17.266Z,977.26
2022-11-17T06:16:17.253Z,977.31
2022-11-17T06:17:21.889Z,977.35
2022-11-17T06:18:18.232Z,977.32
2022-11-17T06:19:17.210Z,977.32
2022-11-17T06:20:17.192Z,977.31
2022-11-17T06:21:17.192Z,977.31
2022-11-17T06:22:17.170Z,977.32
2022-11-17T06:23:17.152Z,977.29
2022-11-17T06:24:17.142Z,977.27
2022-11-17T06:25:17.132Z,977.31
2022-11-17T06:26:17.141Z,977.33
2022-11-17T06:27:17.104Z,977.30
2022-11-17T06:28:17.089Z,977.31
2022-11-17T06:29:17.084Z,977.31
2022-11-17T06:30:17.053Z,977.31
2022-11-17T06:31:17.050Z,977.35
2022-11-17T06:32:17.042Z,977.40
2022-11-17T06:33:17.022Z,977.39
2022-11-17T06:34:17.013Z,977.40
2022-11-17T06:35:17.011Z,977.34
2022-11-17T06:36:16.991Z,977.33
2022-11-17T06:37:16.999Z,977.31
2022-11-17T06:38:16.954Z,977.27
2022-11-17T06:39:16.952Z,977.32
2022-11-17T06:40:16.934Z,977.30
2022-11-17T06:41:16.979Z,977.32
2022-11-17T06:42:16.922Z,977.39
2022-11-17T06:43:16.895Z,977.37
2022-11-17T06:44:16.884Z,977.37
2022-11-17T06:45:16.873Z,977.33
2022-11-17T06:46:16.843Z,977.32
2022-11-17T06:47:16.863Z,977.30
2022-11-17T06:48:16.818Z,977.32
2022-11-17T06:49:16.827Z,977.33
2022-11-17T06:50:16.822Z,977.34
2022-11-17T06:51:16.793Z,977.40
2022-11-17T06:52:16.793Z,977.35
2022-11-17T06:53:16.767Z,977.28
2022-11-17T06:54:16.752Z,977.19
2022-11-17T06:55:16.744Z,977.22
2022-11-17T06:56:16.714Z,977.20
2022-11-17T06:57:16.732Z,977.23
2022-11-17T06:58:16.685Z,977.23
2022-11-17T06:59:16.682Z,977.23
2022-11-17T07:00:16.664Z,977.25
2022-11-17T07:01:16.696Z,977.27
2022-11-17T07:02:16.675Z,977.29
2022-11-17T07:03:16.635Z,977.34
2022-11-17T07:04:16.620Z,977.40
2022-11-17T07:05:16.607Z,977.43
2022-11-17T07:06:16.586Z,977.40
2022-11-17T07:07:16.643Z,977.40
2022-11-17T07:08:16.547Z,977.38
2022-11-17T07:09:16.553Z,977.33
2022-11-17T07:10:16.535Z,977.33
2022-11-17T07:11:16.515Z,977.35
2022-11-17T07:12:16.524Z,977.36
2022-11-17T07:13:16.503Z,977.36
2022-11-17T07:14:16.496Z,977.35
2022-11-17T07:15:16.471Z,977.34
2022-11-17T07:16:22.841Z,977.35
2022-11-17T07:17:17.482Z,977.39
2022-11-17T07:18:16.427Z,977.43
2022-11-17T07:19:16.423Z,977.40
2022-11-17T07:20:16.405Z,977.32
2022-11-17T07:21:16.383Z,977.20
2022-11-17T07:22:16.402Z,977.21
2022-11-17T07:23:16.373Z,977.20
2022-11-17T07:24:16.363Z,977.23
2022-11-17T07:25:22.144Z,977.21
2022-11-17T07:26:17.316Z,977.25
2022-11-17T07:27:16.332Z,977.27
2022-11-17T07:28:16.298Z,977.26
2022-11-17T07:29:16.294Z,977.25
2022-11-17T07:30:16.282Z,977.25
2022-11-17T07:31:16.263Z,977.26
2022-11-17T07:32:16.246Z,977.25
2022-11-17T07:33:16.245Z,977.23
2022-11-17T07:34:16.225Z,977.22
2022-11-17T07:35:16.238Z,977.28
2022-11-17T07:36:16.189Z,977.33
2022-11-17T07:37:16.186Z,977.28
2022-11-17T07:38:16.197Z,977.30
2022-11-17T07:39:21.227Z,977.32
2022-11-17T07:40:17.136Z,977.27
2022-11-17T07:41:16.136Z,977.25
2022-11-17T07:42:16.116Z,977.26
2022-11-17T07:43:16.123Z,977.24
2022-11-17T07:44:16.086Z,977.26
2022-11-17T07:45:16.087Z,977.26
2022-11-17T07:46:16.067Z,977.24
2022-11-17T07:47:16.067Z,977.22
2022-11-17T07:48:16.048Z,977.21
2022-11-17T07:49:16.016Z,977.12
2022-11-17T07:50:16.007Z,977.14
2022-11-17T07:51:16.009Z,977.16
2022-11-17T07:52:15.987Z,977.20
2022-11-17T07:53:15.994Z,977.19
2022-11-17T07:54:15.963Z,977.16
2022-11-17T07:55:15.949Z,977.19
2022-11-17T07:56:15.940Z,977.19
2022-11-17T07:57:15.924Z,977.20
2022-11-17T07:58:15.915Z,977.19
2022-11-17T07:59:21.044Z,977.21
2022-11-17T08:00:16.877Z,977.22
2022-11-17T08:01:15.974Z,977.20
2022-11-17T08:02:15.856Z,977.16
2022-11-17T08:03:15.897Z,977.13
2022-11-17T08:04:15.826Z,977.19
2022-11-17T08:05:15.816Z,977.17
2022-11-17T08:06:15.796Z,977.14
2022-11-17T08:07:15.845Z,977.13
2022-11-17T08:08:15.787Z,977.13
2022-11-17T08:09:15.767Z,977.15
2022-11-17T08:10:15.748Z,977.17
2022-11-17T08:11:15.735Z,977.16
2022-11-17T08:12:22.779Z,977.18
2022-11-17T08:13:15.729Z,977.21
2022-11-17T08:14:15.700Z,977.20
2022-11-17T08:15:15.690Z,977.23
2022-11-17T08:16:15.670Z,977.24
2022-11-17T08:17:15.648Z,977.22
2022-11-17T08:18:15.660Z,977.27
2022-11-17T08:19:15.633Z,977.25
2022-11-17T08:20:15.619Z,977.31
2022-11-17T08:21:15.622Z,977.33
2022-11-17T08:22:15.591Z,977.29
2022-11-17T08:23:15.600Z,977.33
2022-11-17T08:24:15.577Z,977.33
2022-11-17T08:25:15.561Z,977.35
2022-11-17T08:26:15.538Z,977.36
2022-11-17T08:27:15.540Z,977.34
2022-11-17T08:28:15.549Z,977.40
2022-11-17T08:29:15.511Z,977.42
2022-11-17T08:30:15.490Z,977.44
2022-11-17T08:31:15.479Z,977.46
2022-11-17T08:32:15.459Z,977.45
2022-11-17T08:33:15.489Z,977.43
2022-11-17T08:34:15.431Z,977.45
2022-11-17T08:35:15.420Z,977.46
2022-11-17T08:36:15.413Z,977.47
2022-11-17T08:37:15.399Z,977.46
2022-11-17T08:38:15.407Z,977.43
2022-11-17T08:39:15.371Z,977.47
2022-11-17T08:40:15.361Z,977.50
2022-11-17T08:41:15.342Z,977.53
2022-11-17T08:42:15.330Z,977.53
2022-11-17T08:43:15.327Z,977.57
2022-11-17T08:44:15.322Z,977.54
2022-11-17T08:45:15.289Z,977.52
2022-11-17T08:46:15.280Z,977.55
2022-11-17T08:47:15.268Z,977.58
2022-11-17T08:48:15.270Z,977.57
2022-11-17T08:49:15.241Z,977.56
2022-11-17T08:50:15.229Z,977.54
2022-11-17T08:51:15.214Z,977.56
2022-11-17T08:52:15.199Z,977.57
2022-11-17T08:53:15.204Z,977.61
2022-11-17T08:54:15.172Z,977.63
2022-11-17T08:55:15.228Z,977.64
2022-11-17T08:56:15.176Z,977.62
2022-11-17T08:57:15.201Z,977.63
2022-11-17T08:58:15.131Z,977.60
2022-11-17T08:59:15.109Z,977.62
2022-11-17T09:00:15.098Z,977.62
2022-11-17T09:01:15.151Z,977.60
2022-11-17T09:02:15.070Z,977.57
2022-11-17T09:03:15.067Z,977.56
2022-11-17T09:04:15.042Z,977.54
2022-11-17T09:05:15.028Z,977.63
2022-11-17T09:06:15.025Z,977.67
2022-11-17T09:07:15.138Z,977.61
2022-11-17T09:08:45.026Z,977.65
2022-11-17T09:09:16.055Z,977.65
2022-11-17T09:10:14.966Z,977.64
2022-11-17T09:11:14.950Z,977.64
2022-11-17T09:12:14.941Z,977.70
2022-11-17T09:13:18.597Z,977.70
2022-11-17T09:14:14.930Z,977.71
2022-11-17T09:15:14.915Z,977.71
2022-11-17T09:16:14.895Z,977.71
2022-11-17T09:17:14.869Z,977.76
2022-11-17T09:18:14.880Z,977.73
2022-11-17T09:19:14.840Z,977.74
2022-11-17T09:20:14.831Z,977.78
2022-11-17T09:21:14.821Z,977.78
2022-11-17T09:22:14.811Z,977.82
2022-11-17T09:23:14.810Z,977.78
2022-11-17T09:24:14.781Z,977.85
2022-11-17T09:25:14.770Z,977.91
2022-11-17T09:26:14.770Z,977.89
2022-11-17T09:27:14.742Z,977.94
2022-11-17T09:28:14.861Z,977.93
2022-11-17T09:29:14.710Z,977.98
2022-11-17T09:30:14.701Z,977.99
2022-11-17T09:31:14.788Z,977.98
2022-11-17T09:32:14.680Z,978.02
2022-11-17T09:33:14.672Z,977.99
2022-11-17T09:34:14.684Z,978.00
2022-11-17T09:35:14.630Z,978.01
2022-11-17T09:36:14.622Z,978.03
2022-11-17T09:37:14.639Z,978.07
2022-11-17T09:38:14.611Z,978.06
2022-11-17T09:39:14.572Z,978.12
2022-11-17T09:40:14.572Z,978.14
2022-11-17T09:41:14.549Z,978.15
2022-11-17T09:42:14.542Z,978.17
2022-11-17T09:43:14.543Z,978.17
2022-11-17T09:44:14.521Z,978.15
2022-11-17T09:45:14.517Z,978.19
2022-11-17T09:46:14.503Z,978.22
2022-11-17T09:47:14.480Z,978.18
2022-11-17T09:48:39.499Z,978.22
2022-11-17T09:49:15.463Z,978.24
2022-11-17T09:50:14.446Z,978.21
2022-11-17T09:51:14.419Z,978.22
2022-11-17T09:52:14.409Z,978.25
2022-11-17T09:53:14.402Z,978.29
2022-11-17T09:54:14.416Z,978.32
2022-11-17T09:55:14.362Z,978.31
2022-11-17T09:56:14.362Z,978.33
2022-11-17T09:57:14.351Z,978.34
2022-11-17T09:58:14.356Z,978.37
2022-11-17T09:59:14.354Z,978.35
2022-11-17T10:00:14.302Z,978.40
2022-11-17T10:01:14.284Z,978.39
2022-11-17T10:02:14.332Z,978.40
2022-11-17T10:03:14.264Z,978.39
2022-11-17T10:04:14.322Z,978.42
2022-11-17T10:05:14.243Z,978.43
2022-11-17T10:06:14.250Z,978.47
2022-11-17T10:07:14.275Z,978.48
2022-11-17T10:08:14.204Z,978.55
2022-11-17T10:09:14.199Z,978.53
2022-11-17T10:10:14.184Z,978.55
2022-11-17T10:11:14.162Z,978.60
2022-11-17T10:12:14.153Z,978.62
2022-11-17T10:13:14.133Z,978.55
2022-11-17T10:14:14.145Z,978.57
2022-11-17T10:15:14.104Z,978.58
2022-11-17T10:16:14.104Z,978.58
2022-11-17T10:17:14.076Z,978.62
2022-11-17T10:18:14.072Z,978.58
2022-11-17T10:19:14.072Z,978.58
2022-11-17T10:20:14.054Z,978.59
2022-11-17T10:21:14.024Z,978.55
2022-11-17T10:22:14.023Z,978.55
2022-11-17T10:23:14.010Z,978.54
2022-11-17T10:24:14.013Z,978.54
2022-11-17T10:25:13.975Z,978.56
2022-11-17T10:26:13.964Z,978.53
2022-11-17T10:27:13.945Z,978.58
2022-11-17T10:28:13.945Z,978.59
2022-11-17T10:29:13.943Z,978.54
2022-11-17T10:30:13.922Z,978.55
2022-11-17T10:31:13.899Z,978.57
2022-11-17T10:32:13.891Z,978.59
2022-11-17T10:33:13.866Z,978.61
2022-11-17T10:34:13.868Z,978.60
2022-11-17T10:35:13.855Z,978.58
2022-11-17T10:36:13.834Z,978.55
2022-11-17T10:37:13.814Z,978.52
2022-11-17T10:38:13.816Z,978.51
2022-11-17T10:39:17.704Z,978.53
2022-11-17T10:40:13.802Z,978.51
2022-11-17T10:41:13.766Z,978.51
2022-11-17T10:42:13.754Z,978.47
2022-11-17T10:43:13.740Z,978.56
2022-11-17T10:44:13.738Z,978.52
2022-11-17T10:45:13.725Z,978.51
2022-11-17T10:46:13.701Z,978.52
2022-11-17T10:47:13.695Z,978.52
2022-11-17T10:48:13.675Z,978.55
2022-11-17T10:49:13.655Z,978.51
2022-11-17T10:50:13.675Z,978.50
2022-11-17T10:51:13.626Z,978.52
2022-11-17T10:52:13.627Z,978.44
2022-11-17T10:53:13.605Z,978.49
2022-11-17T10:54:13.603Z,978.51
2022-11-17T10:55:13.614Z,978.52
2022-11-17T10:56:13.593Z,978.48
2022-11-17T10:57:13.556Z,978.47
2022-11-17T10:58:13.546Z,978.51
2022-11-17T10:59:13.527Z,978.52
2022-11-17T11:00:13.543Z,978.53
2022-11-17T11:01:13.579Z,978.52
2022-11-17T11:02:13.494Z,978.56
2022-11-17T11:03:13.475Z,978.55
2022-11-17T11:04:13.475Z,978.55
2022-11-17T11:05:13.475Z,978.55
2022-11-17T11:06:17.511Z,978.54
2022-11-17T11:07:13.480Z,978.56
2022-11-17T11:08:13.406Z,978.57
2022-11-17T11:09:13.397Z,978.57
2022-11-17T11:10:13.424Z,978.54
2022-11-17T11:11:13.366Z,978.57
2022-11-17T11:12:13.438Z,978.58
2022-11-17T11:13:13.346Z,978.56
2022-11-17T11:14:13.345Z,978.58
2022-11-17T11:15:13.340Z,978.56
2022-11-17T11:16:13.309Z,978.59
2022-11-17T11:17:13.307Z,978.60
2022-11-17T11:18:13.285Z,978.56
2022-11-17T11:19:13.277Z,978.57
2022-11-17T11:20:13.277Z,978.53
2022-11-17T11:21:13.237Z,978.54
2022-11-17T11:22:16.977Z,978.53
2022-11-17T11:23:14.216Z,978.56
2022-11-17T11:24:13.198Z,978.58
2022-11-17T11:25:13.213Z,978.55
2022-11-17T11:26:13.196Z,978.59
2022-11-17T11:27:13.156Z,978.58
2022-11-17T11:28:13.150Z,978.65
2022-11-17T11:29:13.413Z,978.58
2022-11-17T11:30:13.146Z,978.61
2022-11-17T11:31:13.107Z,978.62
2022-11-17T11:32:13.098Z,978.65
2022-11-17T11:33:13.080Z,978.58
2022-11-17T11:34:13.059Z,978.64
2022-11-17T11:35:17.188Z,978.60
2022-11-17T11:36:13.052Z,978.63
2022-11-17T11:37:13.043Z,978.64
2022-11-17T11:38:13.017Z,978.66
2022-11-17T11:39:13.360Z,978.66
2022-11-17T11:40:13.027Z,978.64
2022-11-17T11:41:12.977Z,978.63
2022-11-17T11:42:12.972Z,978.68
2022-11-17T11:43:12.947Z,978.66
2022-11-17T11:44:12.947Z,978.68
2022-11-17T11:45:12.928Z,978.66
2022-11-17T11:46:12.940Z,978.67
2022-11-17T11:47:12.897Z,978.69
2022-11-17T11:48:12.889Z,978.70
2022-11-17T11:49:12.868Z,978.71
2022-11-17T11:50:12.866Z,978.70
2022-11-17T11:51:12.858Z,978.69
2022-11-17T11:52:12.837Z,978.76
2022-11-17T11:53:12.823Z,978.67
2022-11-17T11:54:13.181Z,978.72
2022-11-17T11:55:12.797Z,978.73
2022-11-17T11:56:12.804Z,978.70
2022-11-17T11:57:12.769Z,978.78
2022-11-17T11:58:12.756Z,978.81
2022-11-17T11:59:12.738Z,978.81
2022-11-17T12:00:12.784Z,978.80
2022-11-17T12:01:12.730Z,978.80
2022-11-17T12:02:12.781Z,978.81
2022-11-17T12:03:12.720Z,978.81
2022-11-17T12:04:13.086Z,978.80
2022-11-17T12:05:12.648Z,978.81
2022-11-17T12:06:12.679Z,978.83
2022-11-17T12:07:12.672Z,978.85
2022-11-17T12:08:12.624Z,978.85
2022-11-17T12:09:12.608Z,978.82
2022-11-17T12:10:12.726Z,978.85
2022-11-17T12:11:12.599Z,978.82
2022-11-17T12:12:12.569Z,978.83
2022-11-17T12:13:12.558Z,978.86
2022-11-17T12:14:12.861Z,978.84
2022-11-17T12:15:12.529Z,978.84
2022-11-17T12:16:12.538Z,978.84
2022-11-17T12:17:12.498Z,978.82
2022-11-17T12:18:12.488Z,978.85
2022-11-17T12:19:12.480Z,978.80
2022-11-17T12:20:12.468Z,978.81
2022-11-17T12:21:12.465Z,978.84
2022-11-17T12:22:12.438Z,978.84
2022-11-17T12:23:12.428Z,978.88
2022-11-17T12:24:12.798Z,978.90
2022-11-17T12:25:12.409Z,978.90
2022-11-17T12:26:12.411Z,978.92
2022-11-17T12:27:12.486Z,978.95
2022-11-17T12:28:12.389Z,978.97
2022-11-17T12:29:12.350Z,978.95